createdAt,value
2022-11-25T00:01:43.696Z,-23274.66
2022-11-25T00:03:48.934Z,-23274.81
2022-11-25T00:05:51.620Z,-23274.81
2022-11-25T00:07:54.431Z,-23275.00
2022-11-25T00:09:57.276Z,-23277.69
2022-11-25T00:12:00.107Z,-23276.91
2022-11-25T00:14:02.849Z,-23276.75
2022-11-25T00:16:07.359Z,-23277.84
2022-11-25T00:18:10.209Z,-23275.63
2022-11-25T00:20:15.733Z,-23277.06
2022-11-25T00:22:18.600Z,-23278.03
2022-11-25T00:24:21.308Z,-23277.84
2022-11-25T00:26:25.390Z,-23277.69
2022-11-25T00:28:29.062Z,-23276.44
2022-11-25T00:30:31.747Z,-23274.81
2022-11-25T00:32:34.454Z,-23275.78
2022-11-25T00:34:37.296Z,-23274.19
2022-11-25T00:36:41.844Z,-23274.81
2022-11-25T00:38:45.272Z,-23276.09
2022-11-25T00:41:07.955Z,-23276.91
2022-11-25T00:43:28.835Z,-23276.25
2022-11-25T00:45:30.607Z,-23274.19
2022-11-25T00:47:33.388Z,-23274.34
2022-11-25T00:49:36.616Z,-23274.34
2022-11-25T00:51:40.979Z,-23272.59
2022-11-25T00:53:43.806Z,-23271.97
2022-11-25T00:56:04.146Z,-23272.13
2022-11-25T00:58:06.888Z,-23272.44
2022-11-25T01:00:12.624Z,-23274.03
2022-11-25T01:02:17.225Z,-23274.81
2022-11-25T01:04:20.105Z,-23273.88
2022-11-25T01:06:23.817Z,-23275.78
2022-11-25T01:08:27.950Z,-23278.97
2022-11-25T01:10:30.694Z,-23280.56
2022-11-25T01:12:33.406Z,-23281.03
2022-11-25T01:14:36.610Z,-23283.13
2022-11-25T01:16:39.577Z,-23281.84
2022-11-25T01:18:42.571Z,-23283.13
2022-11-25T01:20:45.372Z,-23283.28
2022-11-25T01:22:48.159Z,-23281.53
2022-11-25T01:24:52.298Z,-23280.25
2022-11-25T01:26:56.067Z,-23282.00
2022-11-25T01:29:00.979Z,-23281.84
2022-11-25T01:31:05.160Z,-23281.84
2022-11-25T01:33:07.887Z,-23284.72
2022-11-25T01:35:11.401Z,-23284.72
2022-11-25T01:37:14.132Z,-23283.75
2022-11-25T01:39:19.425Z,-23283.75
2022-11-25T01:41:25.577Z,-23284.22
2022-11-25T01:43:29.578Z,-23286.63
2022-11-25T01:45:37.572Z,-23285.03
2022-11-25T01:47:40.277Z,-23282.16
2022-11-25T01:49:47.386Z,-23281.84
2022-11-25T01:51:55.096Z,-23280.88
2022-11-25T01:54:02.226Z,-23279.28
2022-11-25T01:56:05.430Z,-23276.25
2022-11-25T01:58:12.625Z,-23273.22
2022-11-25T02:00:16.688Z,-23271.66
2022-11-25T02:02:21.657Z,-23273.88
2022-11-25T02:04:29.256Z,-23277.69
2022-11-25T02:06:39.885Z,-23276.09
2022-11-25T02:08:46.675Z,-23272.28
2022-11-25T02:10:49.659Z,-23261.44
2022-11-25T02:12:53.537Z,-23260.16
2022-11-25T02:14:59.796Z,-23256.66
2022-11-25T02:17:03.098Z,-23256.00
2022-11-25T02:19:08.251Z,-23255.38
2022-11-25T02:21:11.107Z,-23253.78
2022-11-25T02:23:18.904Z,-23253.47
2022-11-25T02:25:25.222Z,-23255.53
2022-11-25T02:27:28.686Z,-23254.44
2022-11-25T02:29:31.507Z,-23254.44
2022-11-25T02:31:34.300Z,-23254.44
2022-11-25T02:33:37.158Z,-23256.00
2022-11-25T02:35:41.989Z,-23254.25
2022-11-25T02:37:44.777Z,-23252.50
2022-11-25T02:39:48.803Z,-23253.00
2022-11-25T02:41:56.375Z,-23256.66
2022-11-25T02:43:59.406Z,-23253.94
2022-11-25T02:46:05.639Z,-23249.97
2022-11-25T02:48:09.859Z,-23246.44
2022-11-25T02:50:13.899Z,-23248.03
2022-11-25T02:52:16.654Z,-23248.38
2022-11-25T02:54:19.454Z,-23252.19
2022-11-25T02:56:25.241Z,-23248.03
2022-11-25T02:58:29.711Z,-23247.72
2022-11-25T03:00:32.394Z,-23247.72
2022-11-25T03:02:35.230Z,-23249.97
2022-11-25T03:04:38.899Z,-23251.88
2022-11-25T03:06:41.815Z,-23246.44
2022-11-25T03:08:44.580Z,-23246.78
2022-11-25T03:10:47.327Z,-23245.81
2022-11-25T03:12:50.154Z,-23245.81
2022-11-25T03:14:54.276Z,-23246.44
2022-11-25T03:16:57.068Z,-23249.63
2022-11-25T03:18:59.831Z,-23248.38
2022-11-25T03:21:02.824Z,-23246.13
2022-11-25T03:23:06.639Z,-23242.94
2022-11-25T03:25:10.332Z,-23243.56
2022-11-25T03:27:13.081Z,-23238.47
2022-11-25T03:29:16.076Z,-23240.38
2022-11-25T03:31:20.484Z,-23239.91
2022-11-25T03:33:23.265Z,-23238.78
2022-11-25T03:35:25.930Z,-23241.19
2022-11-25T03:37:28.883Z,-23237.50
2022-11-25T03:39:31.706Z,-23238.94
2022-11-25T03:41:34.645Z,-23238.94
2022-11-25T03:43:37.374Z,-23238.47
2022-11-25T03:45:40.230Z,-23240.22
2022-11-25T03:47:45.142Z,-23239.13
2022-11-25T03:49:48.116Z,-23237.84
2022-11-25T03:51:50.879Z,-23236.25
2022-11-25T03:53:53.792Z,-23236.09
2022-11-25T03:55:56.607Z,-23229.38
2022-11-25T03:57:59.299Z,-23227.78
2022-11-25T04:00:02.208Z,-23223.16
2022-11-25T04:02:05.217Z,-23220.94
2022-11-25T04:04:09.342Z,-23218.38
2022-11-25T04:06:12.173Z,-23217.09
2022-11-25T04:08:14.967Z,-23214.22
2022-11-25T04:10:17.860Z,-23212.94
2022-11-25T04:12:38.257Z,-23211.19
2022-11-25T04:14:40.979Z,-23212.78
2022-11-25T04:16:43.763Z,-23216.94
2022-11-25T04:18:46.570Z,-23213.75
2022-11-25T04:20:50.768Z,-23210.69
2022-11-25T04:22:53.755Z,-23212.94
2022-11-25T04:24:56.519Z,-23213.25
2022-11-25T04:26:59.200Z,-23212.94
2022-11-25T04:29:02.236Z,-23218.38
2022-11-25T04:31:07.879Z,-23217.09
2022-11-25T04:33:10.674Z,-23220.28
2022-11-25T04:35:13.471Z,-23219.66
2022-11-25T04:37:17.602Z,-23222.03
2022-11-25T04:39:20.451Z,-23221.56
2022-11-25T04:41:23.461Z,-23220.59
2022-11-25T04:43:26.279Z,-23222.34
2022-11-25T04:45:45.352Z,-23223.47
2022-11-25T04:47:52.066Z,-23227.94
2022-11-25T04:49:54.822Z,-23228.91
2022-11-25T04:51:57.799Z,-23230.03
2022-11-25T04:54:02.002Z,-23229.53
2022-11-25T04:56:05.878Z,-23227.00
2022-11-25T04:58:08.698Z,-23232.09
2022-11-25T05:00:11.784Z,-23228.09
2022-11-25T05:02:16.296Z,-23226.66
2022-11-25T05:04:19.032Z,-23227.31
2022-11-25T05:06:21.816Z,-23225.88
2022-11-25T05:08:24.574Z,-23227.31
2022-11-25T05:10:28.643Z,-23227.00
2022-11-25T05:12:31.889Z,-23228.09
2022-11-25T05:14:35.719Z,-23229.53
2022-11-25T05:16:38.671Z,-23233.03
2022-11-25T05:18:41.436Z,-23230.19
2022-11-25T05:20:44.925Z,-23228.75
2022-11-25T05:22:47.666Z,-23227.94
2022-11-25T05:24:50.450Z,-23228.09
2022-11-25T05:26:54.471Z,-23228.75
2022-11-25T05:28:57.191Z,-23229.69
2022-11-25T05:30:59.992Z,-23228.09
2022-11-25T05:33:02.751Z,-23227.63
2022-11-25T05:35:05.971Z,-23227.94
2022-11-25T05:37:09.204Z,-23224.28
2022-11-25T05:39:11.959Z,-23226.19
2022-11-25T05:41:14.733Z,-23223.31
2022-11-25T05:43:18.955Z,-23222.69
2022-11-25T05:45:21.665Z,-23224.28
2022-11-25T05:47:24.393Z,-23227.63
2022-11-25T05:49:27.129Z,-23227.31
2022-11-25T05:51:29.995Z,-23226.34
2022-11-25T05:53:33.019Z,-23225.06
2022-11-25T05:55:35.682Z,-23224.91
2022-11-25T05:57:38.449Z,-23227.16
2022-11-25T05:59:42.579Z,-23225.88
2022-11-25T06:01:45.275Z,-23226.19
2022-11-25T06:03:48.062Z,-23225.06
2022-11-25T06:05:50.835Z,-23226.81
2022-11-25T06:07:53.978Z,-23224.75
2022-11-25T06:10:02.713Z,-23225.72
2022-11-25T06:12:06.114Z,-23226.34
2022-11-25T06:14:08.816Z,-23225.38
2022-11-25T06:16:15.564Z,-23227.00
2022-11-25T06:18:19.370Z,-23226.81
2022-11-25T06:20:22.124Z,-23231.13
2022-11-25T06:22:24.846Z,-23238.00
2022-11-25T06:24:27.595Z,-23236.88
2022-11-25T06:26:30.604Z,-23238.16
2022-11-25T06:28:33.438Z,-23240.72
2022-11-25T06:30:36.179Z,-23241.97
2022-11-25T06:32:40.260Z,-23243.56
2022-11-25T06:34:43.041Z,-23244.53
2022-11-25T06:36:45.806Z,-23245.19
2022-11-25T06:38:50.029Z,-23245.66
2022-11-25T06:40:55.237Z,-23245.81
2022-11-25T06:43:00.438Z,-23246.78
2022-11-25T06:45:03.298Z,-23245.81
2022-11-25T06:47:06.274Z,-23246.28
2022-11-25T06:49:10.365Z,-23247.09
2022-11-25T06:51:15.415Z,-23246.78
2022-11-25T06:53:23.807Z,-23248.03
2022-11-25T06:55:26.852Z,-23246.28
2022-11-25T06:57:29.587Z,-23246.94
2022-11-25T06:59:33.491Z,-23249.00
2022-11-25T07:01:36.397Z,-23249.31
2022-11-25T07:03:39.600Z,-23250.75
2022-11-25T07:05:43.790Z,-23251.56
2022-11-25T07:07:46.644Z,-23255.22
2022-11-25T07:09:49.352Z,-23258.25
2022-11-25T07:11:52.105Z,-23262.72
2022-11-25T07:13:55.969Z,-23264.16
2022-11-25T07:16:02.075Z,-23267.50
2022-11-25T07:18:05.250Z,-23268.63
2022-11-25T07:20:09.075Z,-23273.56
2022-11-25T07:22:13.160Z,-23274.19
2022-11-25T07:24:17.519Z,-23276.09
2022-11-25T07:26:22.369Z,-23276.44
2022-11-25T07:28:25.096Z,-23279.28
2022-11-25T07:32:50.548Z,-23278.81
2022-11-25T07:34:53.271Z,-23279.28
2022-11-25T07:36:55.948Z,-23279.59
2022-11-25T07:39:01.425Z,-23279.59
2022-11-25T07:41:06.359Z,-23281.19
2022-11-25T07:43:09.043Z,-23281.84
2022-11-25T07:45:12.014Z,-23285.03
2022-11-25T07:47:14.766Z,-23287.41
2022-11-25T07:49:19.511Z,-23286.47
2022-11-25T07:51:24.257Z,-23287.41
2022-11-25T07:53:26.990Z,-23285.66
2022-11-25T07:55:31.092Z,-23284.72
2022-11-25T07:57:33.795Z,-23283.59
2022-11-25T07:59:41.213Z,-23285.34
2022-11-25T08:01:44.541Z,-23287.25
2022-11-25T08:03:49.718Z,-23284.88
2022-11-25T08:05:52.433Z,-23285.50
2022-11-25T08:07:55.244Z,-23288.06
2022-11-25T08:09:57.955Z,-23287.91
2022-11-25T08:12:02.318Z,-23287.25
2022-11-25T08:14:05.608Z,-23287.75
2022-11-25T08:16:09.066Z,-23289.97
2022-11-25T08:18:12.006Z,-23289.50
2022-11-25T08:20:15.053Z,-23286.63
2022-11-25T08:22:17.765Z,-23288.22
2022-11-25T08:24:21.957Z,-23287.56
2022-11-25T08:26:26.797Z,-23290.44
2022-11-25T08:28:30.969Z,-23292.69
2022-11-25T08:30:33.818Z,-23294.91
2022-11-25T08:32:38.579Z,-23293.94
2022-11-25T08:34:41.297Z,-23292.03
2022-11-25T08:36:48.279Z,-23294.91
2022-11-25T08:38:53.801Z,-23297.78
2022-11-25T08:40:57.490Z,-23297.13
2022-11-25T08:43:00.412Z,-23301.28
2022-11-25T08:45:05.791Z,-23302.22
2022-11-25T08:47:09.870Z,-23303.66
2022-11-25T08:49:13.567Z,-23304.63
2022-11-25T08:51:19.124Z,-23311.31
2022-11-25T08:53:22.960Z,-23310.50
2022-11-25T08:55:27.291Z,-23315.13
2022-11-25T08:57:29.975Z,-23313.69
2022-11-25T08:59:32.701Z,-23315.44
2022-11-25T09:01:36.798Z,-23319.44
2022-11-25T09:03:41.540Z,-23318.78
2022-11-25T09:05:45.515Z,-23321.81
2022-11-25T09:07:48.361Z,-23329.94
2022-11-25T09:09:51.114Z,-23343.47
2022-11-25T09:11:53.955Z,-23342.34
2022-11-25T09:13:56.858Z,-23349.66
2022-11-25T09:16:01.209Z,-23355.25
2022-11-25T09:18:08.079Z,-23364.00
2022-11-25T09:20:11.076Z,-23356.50
2022-11-25T09:22:13.796Z,-23363.34
2022-11-25T09:24:16.568Z,-23379.72
2022-11-25T09:26:23.467Z,-23369.72
2022-11-25T09:28:27.719Z,-23378.63
2022-11-25T09:30:30.843Z,-23369.06
2022-11-25T09:32:33.567Z,-23367.16
2022-11-25T09:34:37.943Z,-23364.31
2022-11-25T09:36:40.740Z,-23369.72
2022-11-25T09:38:44.973Z,-23364.00
2022-11-25T09:40:56.362Z,-23365.91
2022-11-25T09:43:25.425Z,-23370.66
2022-11-25T09:45:54.175Z,-23368.75
2022-11-25T09:48:07.633Z,-23361.59
2022-11-25T09:50:19.865Z,-23363.66
2022-11-25T09:52:31.249Z,-23366.22
2022-11-25T09:54:38.015Z,-23367.50
2022-11-25T09:56:43.171Z,-23369.06
2022-11-25T09:58:52.820Z,-23371.31
2022-11-25T10:00:55.635Z,-23369.06
2022-11-25T10:03:05.652Z,-23370.81
2022-11-25T10:05:14.545Z,-23372.91
2022-11-25T10:07:23.024Z,-23370.50
2022-11-25T10:09:28.832Z,-23374.63
2022-11-25T10:11:47.799Z,-23373.22
2022-11-25T10:13:55.807Z,-23374.81
2022-11-25T10:16:00.573Z,-23376.06
2022-11-25T10:18:11.554Z,-23377.03
2022-11-25T10:20:21.027Z,-23382.13
2022-11-25T10:22:27.575Z,-23379.88
2022-11-25T10:24:30.263Z,-23381.00
2022-11-25T10:26:41.241Z,-23385.28
2022-11-25T10:28:53.092Z,-23389.44
2022-11-25T10:31:02.319Z,-23395.47
2022-11-25T10:33:14.975Z,-23402.44
2022-11-25T10:35:25.699Z,-23408.00
2022-11-25T10:37:34.875Z,-23407.22
2022-11-25T10:39:37.591Z,-23408.00
2022-11-25T10:41:47.541Z,-23411.03
2022-11-25T10:43:50.482Z,-23415.16
2022-11-25T10:46:03.811Z,-23425.16
2022-11-25T10:48:19.656Z,-23425.63
2022-11-25T10:50:32.388Z,-23424.84
2022-11-25T10:52:41.864Z,-23427.84
2022-11-25T10:54:57.428Z,-23427.84
2022-11-25T10:57:02.257Z,-23422.47
2022-11-25T10:59:14.960Z,-23422.63
2022-11-25T11:01:21.789Z,-23425.00
2022-11-25T11:03:27.743Z,-23423.56
2022-11-25T11:05:31.933Z,-23424.84
2022-11-25T11:07:38.569Z,-23421.50
2022-11-25T11:09:41.820Z,-23422.94
2022-11-25T11:11:48.925Z,-23423.72
2022-11-25T11:13:59.741Z,-23422.16
2022-11-25T11:16:03.054Z,-23423.88
2022-11-25T11:18:24.313Z,-23425.63
2022-11-25T11:20:29.682Z,-23430.56
2022-11-25T11:22:33.882Z,-23429.78
2022-11-25T11:24:38.986Z,-23426.28
2022-11-25T11:26:41.932Z,-23426.13
2022-11-25T11:28:45.356Z,-23428.50
2022-11-25T11:30:57.714Z,-23429.44
2022-11-25T11:33:06.529Z,-23432.31
2022-11-25T11:35:22.130Z,-23432.78
2022-11-25T11:37:37.609Z,-23430.41
2022-11-25T11:40:03.165Z,-23434.06
2022-11-25T11:42:15.095Z,-23429.44
2022-11-25T11:44:28.461Z,-23433.28
2022-11-25T11:46:41.953Z,-23433.41
2022-11-25T11:48:56.217Z,-23435.47
2022-11-25T11:51:07.274Z,-23433.09
2022-11-25T11:53:21.943Z,-23428.81
2022-11-25T11:55:40.738Z,-23428.19
2022-11-25T11:57:54.362Z,-23429.78
2022-11-25T11:59:59.629Z,-23429.44
2022-11-25T12:02:23.975Z,-23431.69
2022-11-25T12:04:32.123Z,-23425.00
2022-11-25T12:06:38.676Z,-23422.16
2022-11-25T12:08:50.908Z,-23420.41
2022-11-25T12:10:59.522Z,-23413.56
2022-11-25T12:13:12.640Z,-23412.63
2022-11-25T12:15:20.922Z,-23414.22
2022-11-25T12:17:29.691Z,-23413.56
2022-11-25T12:19:40.412Z,-23411.97
2022-11-25T12:21:52.416Z,-23415.97
2022-11-25T12:24:04.119Z,-23413.25
2022-11-25T12:26:26.743Z,-23414.53
2022-11-25T12:28:36.601Z,-23414.03
2022-11-25T12:30:45.776Z,-23417.06
2022-11-25T12:32:54.595Z,-23420.72
2022-11-25T12:35:03.215Z,-23427.53
2022-11-25T12:37:15.254Z,-23429.44
2022-11-25T12:39:26.648Z,-23433.28
2022-11-25T12:41:41.449Z,-23434.22
2022-11-25T12:43:48.793Z,-23434.06
2022-11-25T12:46:01.387Z,-23434.53
2022-11-25T12:48:04.307Z,-23433.91
2022-11-25T12:50:15.425Z,-23434.22
2022-11-25T12:52:47.774Z,-23436.44
2022-11-25T12:55:10.855Z,-23430.72
2022-11-25T12:57:49.215Z,-23431.84
2022-11-25T13:00:39.385Z,-23428.81
2022-11-25T13:03:01.104Z,-23427.84
2022-11-25T13:05:48.644Z,-23431.19
2022-11-25T13:08:04.539Z,-23430.09
2022-11-25T13:10:29.588Z,-23426.28
2022-11-25T13:12:42.403Z,-23423.09
2022-11-25T13:15:14.161Z,-23424.06
2022-11-25T13:17:18.876Z,-23420.88
2022-11-25T13:19:22.231Z,-23417.38
2022-11-25T13:21:29.046Z,-23413.25
2022-11-25T13:23:48.658Z,-23412.78
2022-11-25T13:26:12.871Z,-23412.94
2022-11-25T13:28:31.630Z,-23412.94
2022-11-25T13:30:40.103Z,-23412.31
2022-11-25T13:32:46.165Z,-23412.63
2022-11-25T13:34:49.069Z,-23413.09
2022-11-25T13:36:53.160Z,-23411.97
2022-11-25T13:39:04.107Z,-23411.66
2022-11-25T13:41:23.403Z,-23413.41
2022-11-25T13:43:26.465Z,-23410.41
2022-11-25T13:45:33.709Z,-23411.34
2022-11-25T13:47:39.364Z,-23415.47
2022-11-25T13:49:53.194Z,-23416.09
2022-11-25T13:52:17.734Z,-23418.97
2022-11-25T13:54:23.592Z,-23424.06
2022-11-25T13:56:30.225Z,-23422.94
2022-11-25T13:58:36.061Z,-23427.53
2022-11-25T14:01:05.540Z,-23427.84
2022-11-25T14:03:44.830Z,-23428.50
2022-11-25T14:06:01.822Z,-23434.53
2022-11-25T14:08:15.843Z,-23430.88
2022-11-25T14:10:32.408Z,-23429.44
2022-11-25T14:12:49.613Z,-23425.31
2022-11-25T14:15:12.803Z,-23425.47
2022-11-25T14:17:31.896Z,-23426.28
2022-11-25T14:20:05.137Z,-23425.00
2022-11-25T14:22:24.077Z,-23425.47
2022-11-25T14:24:35.246Z,-23418.81
2022-11-25T14:26:55.908Z,-23421.19
2022-11-25T14:29:03.623Z,-23423.09
2022-11-25T14:31:10.366Z,-23423.41
2022-11-25T14:33:16.845Z,-23422.78
2022-11-25T14:35:22.924Z,-23425.63
2022-11-25T14:37:30.728Z,-23425.31
2022-11-25T14:39:37.690Z,-23425.78
2022-11-25T14:41:45.383Z,-23421.81
2022-11-25T14:43:53.636Z,-23422.00
2022-11-25T14:46:10.770Z,-23421.03
2022-11-25T14:48:16.809Z,-23418.50
2022-11-25T14:50:34.585Z,-23418.34
2022-11-25T14:52:38.133Z,-23423.41
2022-11-25T14:54:42.838Z,-23423.72
2022-11-25T14:56:46.270Z,-23422.63
2022-11-25T14:58:50.928Z,-23422.00
2022-11-25T15:01:01.734Z,-23418.97
2022-11-25T15:03:06.569Z,-23416.75
2022-11-25T15:05:20.711Z,-23419.75
2022-11-25T15:07:30.736Z,-23420.41
2022-11-25T15:09:39.388Z,-23420.88
2022-11-25T15:11:42.350Z,-23420.25
2022-11-25T15:13:47.768Z,-23419.94
2022-11-25T15:15:51.743Z,-23419.59
2022-11-25T15:17:55.368Z,-23419.28
2022-11-25T15:20:00.364Z,-23414.22
2022-11-25T15:22:22.321Z,-23415.16
2022-11-25T15:24:28.328Z,-23418.19
2022-11-25T15:26:33.586Z,-23416.09
2022-11-25T15:28:37.658Z,-23415.16
2022-11-25T15:30:40.401Z,-23412.47
2022-11-25T15:32:43.251Z,-23410.72
2022-11-25T15:34:47.353Z,-23413.88
2022-11-25T15:36:54.195Z,-23413.09
2022-11-25T15:39:15.003Z,-23414.38
2022-11-25T15:41:33.855Z,-23415.78
2022-11-25T15:43:42.017Z,-23412.31
2022-11-25T15:45:47.206Z,-23413.88
2022-11-25T15:47:50.486Z,-23414.38
2022-11-25T15:50:01.130Z,-23413.88
2022-11-25T15:52:07.093Z,-23417.53
2022-11-25T15:54:20.098Z,-23414.38
2022-11-25T15:56:27.103Z,-23409.13
2022-11-25T15:58:30.456Z,-23407.53
2022-11-25T16:00:33.496Z,-23410.06
2022-11-25T16:02:39.203Z,-23409.44
2022-11-25T16:04:42.018Z,-23407.53
2022-11-25T16:06:55.004Z,-23408.16
2022-11-25T16:09:00.566Z,-23408.34
2022-11-25T16:11:19.501Z,-23406.91
2022-11-25T16:13:38.442Z,-23407.06
2022-11-25T16:15:46.925Z,-23404.69
2022-11-25T16:17:49.652Z,-23404.34
2022-11-25T16:19:52.417Z,-23400.53
2022-11-25T16:22:00.103Z,-23399.91
2022-11-25T16:24:14.984Z,-23397.69
2022-11-25T16:26:23.930Z,-23396.72
2022-11-25T16:28:26.810Z,-23395.78
2022-11-25T16:30:29.604Z,-23396.56
2022-11-25T16:32:33.688Z,-23398.31
2022-11-25T16:34:36.738Z,-23397.06
2022-11-25T16:36:39.670Z,-23398.31
2022-11-25T16:38:42.512Z,-23396.72
2022-11-25T16:40:45.923Z,-23401.50
2022-11-25T16:42:51.678Z,-23396.09
2022-11-25T16:44:54.456Z,-23397.38
2022-11-25T16:46:58.473Z,-23398.31
2022-11-25T16:49:05.442Z,-23400.22
2022-11-25T16:51:14.645Z,-23399.44
2022-11-25T16:53:17.742Z,-23400.88
2022-11-25T16:55:20.546Z,-23398.16
2022-11-25T16:57:23.601Z,-23400.22
2022-11-25T16:59:31.657Z,-23399.13
2022-11-25T17:01:35.268Z,-23398.78
2022-11-25T17:03:38.263Z,-23398.97
2022-11-25T17:05:41.027Z,-23403.41
2022-11-25T17:07:43.862Z,-23400.06
2022-11-25T17:09:47.337Z,-23399.59
2022-11-25T17:11:54.857Z,-23398.66
2022-11-25T17:14:00.737Z,-23397.69
2022-11-25T17:16:05.426Z,-23398.97
2022-11-25T17:18:09.070Z,-23396.41
2022-11-25T17:20:15.974Z,-23397.22
2022-11-25T17:22:21.008Z,-23397.69
2022-11-25T17:24:25.517Z,-23395.16
2022-11-25T17:26:36.825Z,-23395.16
2022-11-25T17:28:39.769Z,-23395.16
2022-11-25T17:30:43.899Z,-23394.03
2022-11-25T17:32:48.904Z,-23396.72
2022-11-25T17:34:51.809Z,-23397.22
2022-11-25T17:36:54.675Z,-23393.41
2022-11-25T17:38:57.626Z,-23393.56
2022-11-25T17:41:00.366Z,-23399.28
2022-11-25T17:43:03.191Z,-23395.31
2022-11-25T17:45:13.216Z,-23397.22
2022-11-25T17:47:18.202Z,-23395.31
2022-11-25T17:49:22.749Z,-23394.03
2022-11-25T17:51:25.519Z,-23396.88
2022-11-25T17:53:28.291Z,-23396.25
2022-11-25T17:55:32.253Z,-23398.47
2022-11-25T17:57:35.643Z,-23398.31
2022-11-25T17:59:38.589Z,-23396.88
2022-11-25T18:01:41.481Z,-23395.63
2022-11-25T18:03:44.225Z,-23399.75
2022-11-25T18:05:48.288Z,-23400.22
2022-11-25T18:07:51.489Z,-23398.97
2022-11-25T18:09:54.280Z,-23399.13
2022-11-25T18:12:00.240Z,-23398.31
2022-11-25T18:14:03.075Z,-23400.88
2022-11-25T18:16:06.888Z,-23400.38
2022-11-25T18:18:20.149Z,-23397.38
2022-11-25T18:20:25.634Z,-23399.59
2022-11-25T18:22:30.788Z,-23399.28
2022-11-25T18:24:33.458Z,-23394.19
2022-11-25T18:26:43.643Z,-23395.47
2022-11-25T18:28:46.634Z,-23391.97
2022-11-25T18:30:50.468Z,-23391.00
2022-11-25T18:32:53.812Z,-23391.50
2022-11-25T18:34:56.819Z,-23391.50
2022-11-25T18:36:59.710Z,-23388.47
2022-11-25T18:39:04.016Z,-23391.50
2022-11-25T18:41:07.111Z,-23390.53
2022-11-25T18:43:15.910Z,-23394.34
2022-11-25T18:45:21.491Z,-23394.03
2022-11-25T18:47:24.632Z,-23394.81
2022-11-25T18:49:27.661Z,-23391.66
2022-11-25T18:51:30.437Z,-23393.09
2022-11-25T18:53:33.543Z,-23394.50
2022-11-25T18:55:38.088Z,-23393.56
2022-11-25T18:57:42.446Z,-23394.50
2022-11-25T18:59:48.040Z,-23396.25
2022-11-25T19:01:59.040Z,-23396.56
2022-11-25T19:04:01.817Z,-23392.91
2022-11-25T19:06:04.711Z,-23396.09
2022-11-25T19:08:07.457Z,-23397.06
2022-11-25T19:10:13.752Z,-23394.19
2022-11-25T19:12:21.335Z,-23395.94
2022-11-25T19:14:30.976Z,-23395.31
2022-11-25T19:16:34.086Z,-23391.66
2022-11-25T19:18:36.982Z,-23386.72
2022-11-25T19:20:39.747Z,-23385.78
2022-11-25T19:22:42.688Z,-23384.34
2022-11-25T19:24:45.934Z,-23381.47
2022-11-25T19:26:50.991Z,-23385.59
2022-11-25T19:29:00.635Z,-23377.66
2022-11-25T19:31:04.845Z,-23377.66
2022-11-25T19:33:16.266Z,-23381.97
2022-11-25T19:35:23.688Z,-23380.53
2022-11-25T19:37:29.976Z,-23379.25
2022-11-25T19:39:36.651Z,-23380.38
2022-11-25T19:41:39.356Z,-23380.22
2022-11-25T19:43:42.060Z,-23377.66
2022-11-25T19:45:46.707Z,-23377.50
2022-11-25T19:47:51.907Z,-23376.06
2022-11-25T19:49:58.411Z,-23376.56
2022-11-25T19:52:01.174Z,-23375.44
2022-11-25T19:54:04.216Z,-23373.69
2022-11-25T19:56:07.739Z,-23374.16
2022-11-25T19:58:10.767Z,-23372.91
2022-11-25T20:00:15.529Z,-23374.50
2022-11-25T20:02:23.158Z,-23371.63
2022-11-25T20:04:26.180Z,-23372.25
2022-11-25T20:06:30.314Z,-23374.31
2022-11-25T20:08:33.038Z,-23372.41
2022-11-25T20:10:36.072Z,-23374.81
2022-11-25T20:12:38.780Z,-23371.63
2022-11-25T20:14:41.623Z,-23372.56
2022-11-25T20:16:44.384Z,-23376.41
2022-11-25T20:18:49.321Z,-23374.63
2022-11-25T20:20:57.197Z,-23373.53
2022-11-25T20:23:03.569Z,-23370.81
2022-11-25T20:25:10.656Z,-23373.06
2022-11-25T20:27:13.914Z,-23371.00
2022-11-25T20:29:19.415Z,-23370.03
2022-11-25T20:31:25.144Z,-23371.63
2022-11-25T20:33:30.145Z,-23373.69
2022-11-25T20:35:34.553Z,-23372.91
2022-11-25T20:37:50.559Z,-23370.66
2022-11-25T20:39:55.187Z,-23372.91
2022-11-25T20:41:57.913Z,-23374.50
2022-11-25T20:44:01.494Z,-23372.09
2022-11-25T20:46:04.619Z,-23372.25
2022-11-25T20:48:11.465Z,-23372.41
2022-11-25T20:50:14.344Z,-23371.94
2022-11-25T20:52:25.079Z,-23372.91
2022-11-25T20:54:27.960Z,-23374.97
2022-11-25T20:56:31.290Z,-23375.13
2022-11-25T20:58:34.520Z,-23372.09
2022-11-25T21:00:37.285Z,-23369.25
2022-11-25T21:02:40.008Z,-23370.34
2022-11-25T21:04:42.951Z,-23367.16
2022-11-25T21:06:46.177Z,-23368.59
2022-11-25T21:08:52.713Z,-23366.53
2022-11-25T21:10:57.176Z,-23367.00
2022-11-25T21:12:59.986Z,-23365.44
2022-11-25T21:15:02.700Z,-23366.53
2022-11-25T21:17:06.252Z,-23360.00
2022-11-25T21:19:09.006Z,-23360.34
2022-11-25T21:21:16.963Z,-23358.75
2022-11-25T21:23:22.895Z,-23356.50
2022-11-25T21:25:27.172Z,-23356.19
2022-11-25T21:27:30.235Z,-23354.75
2022-11-25T21:29:33.220Z,-23353.50
2022-11-25T21:31:36.034Z,-23352.84
2022-11-25T21:33:38.821Z,-23351.09
2022-11-25T21:35:43.704Z,-23350.00
2022-11-25T21:37:46.591Z,-23353.50
2022-11-25T21:39:49.447Z,-23350.47
2022-11-25T21:41:54.109Z,-23350.00
2022-11-25T21:43:57.034Z,-23343.78
2022-11-25T21:46:03.110Z,-23343.47
2022-11-25T21:48:15.014Z,-23343.16
2022-11-25T21:50:19.599Z,-23343.16
2022-11-25T21:52:22.718Z,-23341.41
2022-11-25T21:54:25.461Z,-23346.66
2022-11-25T21:56:31.877Z,-23345.84
2022-11-25T21:58:36.260Z,-23346.00
2022-11-25T22:00:39.024Z,-23348.22
2022-11-25T22:02:44.000Z,-23344.72
2022-11-25T22:04:46.762Z,-23346.50
2022-11-25T22:06:50.968Z,-23347.13
2022-11-25T22:08:53.995Z,-23345.84
2022-11-25T22:10:56.866Z,-23346.97
2022-11-25T22:12:59.666Z,-23344.25
2022-11-25T22:15:04.063Z,-23341.56
2022-11-25T22:17:11.457Z,-23340.75
2022-11-25T22:19:20.602Z,-23343.16
2022-11-25T22:21:23.427Z,-23339.16
2022-11-25T22:23:26.527Z,-23338.53
2022-11-25T22:25:31.866Z,-23335.66
2022-11-25T22:27:37.022Z,-23336.31
2022-11-25T22:29:40.003Z,-23335.03
2022-11-25T22:31:44.618Z,-23342.03
2022-11-25T22:33:48.209Z,-23338.38
2022-11-25T22:35:51.307Z,-23337.91
2022-11-25T22:37:55.489Z,-23337.91
2022-11-25T22:39:58.451Z,-23335.97
2022-11-25T22:42:05.213Z,-23334.88
2022-11-25T22:44:09.797Z,-23337.25
2022-11-25T22:46:12.627Z,-23333.59
2022-11-25T22:48:19.271Z,-23337.41
2022-11-25T22:50:27.450Z,-23335.97
2022-11-25T22:52:32.387Z,-23337.56
2022-11-25T22:54:35.289Z,-23336.94
2022-11-25T22:56:38.193Z,-23341.88
2022-11-25T22:58:40.922Z,-23342.66
2022-11-25T23:00:46.420Z,-23334.72
2022-11-25T23:02:50.475Z,-23333.91
2022-11-25T23:04:56.796Z,-23332.16
2022-11-25T23:06:59.514Z,-23331.69
2022-11-25T23:09:03.007Z,-23334.72
2022-11-25T23:11:05.982Z,-23331.53
2022-11-25T23:13:09.051Z,-23330.25
2022-11-25T23:15:14.981Z,-23331.69
2022-11-25T23:17:20.344Z,-23329.94
2022-11-25T23:19:23.076Z,-23329.31
2022-11-25T23:21:29.070Z,-23328.97
2022-11-25T23:23:32.132Z,-23328.50
2022-11-25T23:25:34.905Z,-23327.06
2022-11-25T23:27:37.582Z,-23328.03
2022-11-25T23:29:40.559Z,-23327.72
2022-11-25T23:31:43.798Z,-23324.53
2022-11-25T23:33:49.341Z,-23323.72
2022-11-25T23:35:52.201Z,-23325.47
2022-11-25T23:37:58.132Z,-23322.31
2022-11-25T23:40:00.901Z,-23321.66
2022-11-25T23:42:03.650Z,-23323.56
2022-11-25T23:44:14.622Z,-23325.47
2022-11-25T23:46:20.009Z,-23323.41
2022-11-25T23:48:25.895Z,-23321.97
2022-11-25T23:50:32.373Z,-23322.47
2022-11-25T23:52:35.141Z,-23320.72
2022-11-25T23:54:42.505Z,-23318.00
2022-11-25T23:56:45.213Z,-23317.19
2022-11-25T23:58:49.426Z,-23315.28
